sensor_id;sensor_type;location;lat;lon;timestamp;pressure;altitude;pressure_sealevel;temperature;humidity
71107;BME280;58763;47.982;11.516;2023-11-19T00:00:42;94216.34;;;4.45;100.00
71107;BME280;58763;47.982;11.516;2023-11-19T00:03:08;94225.41;;;4.44;100.00
71107;BME280;58763;47.982;11.516;2023-11-19T00:05:36;94208.88;;;4.47;100.00
71107;BME280;58763;47.982;11.516;2023-11-19T00:08:01;94209.19;;;4.34;100.00
71107;BME280;58763;47.982;11.516;2023-11-19T00:10:27;94203.13;;;4.39;100.00
71107;BME280;58763;47.982;11.516;2023-11-19T00:12:52;94194.09;;;4.45;100.00
71107;BME280;58763;47.982;11.516;2023-11-19T00:15:19;94187.84;;;4.39;100.00
71107;BME280;58763;47.982;11.516;2023-11-19T00:17:46;94182.56;;;4.44;100.00
71107;BME280;58763;47.982;11.516;2023-11-19T00:20:15;94181.84;;;4.49;100.00
71107;BME280;58763;47.982;11.516;2023-11-19T00:22:44;94180.22;;;4.48;100.00
71107;BME280;58763;47.982;11.516;2023-11-19T00:25:09;94175.25;;;4.56;100.00
71107;BME280;58763;47.982;11.516;2023-11-19T00:27:35;94177.91;;;4.56;100.00
71107;BME280;58763;47.982;11.516;2023-11-19T00:30:01;94177.84;;;4.51;100.00
71107;BME280;58763;47.982;11.516;2023-11-19T00:32:28;94162.91;;;4.55;100.00
71107;BME280;58763;47.982;11.516;2023-11-19T00:34:54;94185.94;;;4.56;100.00
71107;BME280;58763;47.982;11.516;2023-11-19T00:37:20;94160.28;;;4.60;100.00
71107;BME280;58763;47.982;11.516;2023-11-19T00:39:45;94160.28;;;4.60;100.00
71107;BME280;58763;47.982;11.516;2023-11-19T00:42:11;94166.53;;;4.66;100.00
71107;BME280;58763;47.982;11.516;2023-11-19T00:44:36;94155.25;;;4.64;100.00
71107;BME280;58763;47.982;11.516;2023-11-19T00:47:02;94145.03;;;4.61;100.00
71107;BME280;58763;47.982;11.516;2023-11-19T00:49:28;94152.50;;;4.59;100.00
71107;BME280;58763;47.982;11.516;2023-11-19T00:51:53;94147.97;;;4.59;100.00
71107;BME280;58763;47.982;11.516;2023-11-19T00:54:19;94145.28;;;4.59;100.00
71107;BME280;58763;47.982;11.516;2023-11-19T00:56:46;94147.97;;;4.59;100.00
71107;BME280;58763;47.982;11.516;2023-11-19T00:59:11;94154.63;;;4.57;100.00
71107;BME280;58763;47.982;11.516;2023-11-19T01:01:37;94153.19;;;4.71;100.00
71107;BME280;58763;47.982;11.516;2023-11-19T01:04:02;94142.00;;;4.52;100.00
71107;BME280;58763;47.982;11.516;2023-11-19T01:06:29;94149.66;;;4.65;100.00
71107;BME280;58763;47.982;11.516;2023-11-19T01:08:54;94157.41;;;4.67;100.00
71107;BME280;58763;47.982;11.516;2023-11-19T01:11:22;94154.75;;;4.67;100.00
71107;BME280;58763;47.982;11.516;2023-11-19T01:13:48;94152.94;;;4.72;100.00
71107;BME280;58763;47.982;11.516;2023-11-19T01:16:14;94147.19;;;4.85;100.00
71107;BME280;58763;47.982;11.516;2023-11-19T01:18:39;94150.19;;;4.89;100.00
71107;BME280;58763;47.982;11.516;2023-11-19T01:21:05;94139.97;;;4.86;100.00
71107;BME280;58763;47.982;11.516;2023-11-19T01:23:31;94146.09;;;4.81;100.00
71107;BME280;58763;47.982;11.516;2023-11-19T01:25:56;94142.84;;;4.79;100.00
71107;BME280;58763;47.982;11.516;2023-11-19T01:28:21;94151.09;;;4.73;100.00
71107;BME280;58763;47.982;11.516;2023-11-19T01:30:50;94138.19;;;4.70;100.00
71107;BME280;58763;47.982;11.516;2023-11-19T01:33:17;94142.97;;;4.68;100.00
71107;BME280;58763;47.982;11.516;2023-11-19T01:35:43;94135.56;;;4.75;100.00
71107;BME280;58763;47.982;11.516;2023-11-19T01:38:08;94142.22;;;4.72;100.00
71107;BME280;58763;47.982;11.516;2023-11-19T01:40:34;94134.75;;;4.74;100.00
71107;BME280;58763;47.982;11.516;2023-11-19T01:43:02;94130.81;;;4.82;100.00
71107;BME280;58763;47.982;11.516;2023-11-19T01:45:29;94123.03;;;4.80;100.00
71107;BME280;58763;47.982;11.516;2023-11-19T01:48:00;94123.66;;;4.87;100.00
71107;BME280;58763;47.982;11.516;2023-11-19T01:50:29;94107.88;;;4.91;100.00
71107;BME280;58763;47.982;11.516;2023-11-19T01:52:56;94116.72;;;4.92;100.00
71107;BME280;58763;47.982;11.516;2023-11-19T01:55:27;94131.13;;;4.85;100.00
71107;BME280;58763;47.982;11.516;2023-11-19T01:57:55;94109.81;;;4.96;100.00
71107;BME280;58763;47.982;11.516;2023-11-19T02:00:23;94115.50;;;5.04;100.00
71107;BME280;58763;47.982;11.516;2023-11-19T02:02:50;94112.31;;;5.07;100.00
71107;BME280;58763;47.982;11.516;2023-11-19T02:05:17;94112.66;;;5.11;100.00
71107;BME280;58763;47.982;11.516;2023-11-19T02:07:43;94115.41;;;5.21;100.00
71107;BME280;58763;47.982;11.516;2023-11-19T02:10:08;94109.44;;;5.14;100.00
71107;BME280;58763;47.982;11.516;2023-11-19T02:12:42;94112.66;;;5.11;100.00
71107;BME280;58763;47.982;11.516;2023-11-19T02:15:09;94104.84;;;5.09;100.00
71107;BME280;58763;47.982;11.516;2023-11-19T02:17:35;94094.13;;;5.09;100.00
71107;BME280;58763;47.982;11.516;2023-11-19T02:20:06;94088.97;;;5.03;100.00
71107;BME280;58763;47.982;11.516;2023-11-19T02:22:34;94068.13;;;5.10;100.00
71107;BME280;58763;47.982;11.516;2023-11-19T02:25:04;94055.81;;;5.09;100.00
71107;BME280;58763;47.982;11.516;2023-11-19T02:30:01;94060.63;;;5.12;100.00
71107;BME280;58763;47.982;11.516;2023-11-19T02:32:29;94047.50;;;5.10;100.00
71107;BME280;58763;47.982;11.516;2023-11-19T02:34:56;94043.56;;;5.18;100.00
71107;BME280;58763;47.982;11.516;2023-11-19T02:37:21;94031.72;;;5.14;100.00
71107;BME280;58763;47.982;11.516;2023-11-19T02:39:46;94027.47;;;5.18;100.00
71107;BME280;58763;47.982;11.516;2023-11-19T02:42:12;94023.47;;;5.20;100.00
71107;BME280;58763;47.982;11.516;2023-11-19T02:44:38;94035.28;;;5.24;100.00
71107;BME280;58763;47.982;11.516;2023-11-19T02:47:11;94019.75;;;5.26;100.00
71107;BME280;58763;47.982;11.516;2023-11-19T02:49:38;94024.66;;;5.39;100.00
71107;BME280;58763;47.982;11.516;2023-11-19T02:52:04;94022.25;;;5.38;100.00
71107;BME280;58763;47.982;11.516;2023-11-19T02:54:31;94013.44;;;5.42;100.00
71107;BME280;58763;47.982;11.516;2023-11-19T02:57:00;94012.13;;;5.45;100.00
71107;BME280;58763;47.982;11.516;2023-11-19T02:59:28;93994.16;;;5.45;100.00
71107;BME280;58763;47.982;11.516;2023-11-19T03:02:07;93995.56;;;5.53;100.00
71107;BME280;58763;47.982;11.516;2023-11-19T03:04:36;94000.66;;;5.54;100.00
71107;BME280;58763;47.982;11.516;2023-11-19T03:07:01;93999.34;;;5.57;100.00
71107;BME280;58763;47.982;11.516;2023-11-19T03:09:27;93997.19;;;5.59;100.00
71107;BME280;58763;47.982;11.516;2023-11-19T03:11:54;93988.63;;;5.62;100.00
71107;BME280;58763;47.982;11.516;2023-11-19T03:14:19;93977.41;;;5.70;100.00
71107;BME280;58763;47.982;11.516;2023-11-19T03:16:45;93987.06;;;5.71;100.00
71107;BME280;58763;47.982;11.516;2023-11-19T03:19:14;93989.50;;;5.73;100.00
71107;BME280;58763;47.982;11.516;2023-11-19T03:21:40;93984.41;;;5.71;100.00
71107;BME280;58763;47.982;11.516;2023-11-19T03:24:05;93978.56;;;5.84;100.00
71107;BME280;58763;47.982;11.516;2023-11-19T03:26:32;93976.94;;;5.83;100.00
71107;BME280;58763;47.982;11.516;2023-11-19T03:29:00;93973.78;;;5.91;100.00
71107;BME280;58763;47.982;11.516;2023-11-19T03:31:26;93981.31;;;5.94;100.00
71107;BME280;58763;47.982;11.516;2023-11-19T03:33:52;93973.03;;;6.01;100.00
71107;BME280;58763;47.982;11.516;2023-11-19T03:36:17;93962.59;;;6.04;100.00
71107;BME280;58763;47.982;11.516;2023-11-19T03:38:42;93973.84;;;6.11;100.00
71107;BME280;58763;47.982;11.516;2023-11-19T03:41:14;93964.75;;;6.12;100.00
71107;BME280;58763;47.982;11.516;2023-11-19T03:43:41;93967.72;;;6.21;100.00
71107;BME280;58763;47.982;11.516;2023-11-19T03:46:19;93969.88;;;6.24;100.00
71107;BME280;58763;47.982;11.516;2023-11-19T03:48:46;93957.56;;;6.33;100.00
71107;BME280;58763;47.982;11.516;2023-11-19T03:51:12;93967.50;;;6.38;100.00
71107;BME280;58763;47.982;11.516;2023-11-19T03:53:44;93956.28;;;6.51;100.00
71107;BME280;58763;47.982;11.516;2023-11-19T03:56:10;93969.72;;;6.71;100.00
71107;BME280;58763;47.982;11.516;2023-11-19T03:58:35;93988.28;;;6.87;100.00
71107;BME280;58763;47.982;11.516;2023-11-19T04:01:01;93986.41;;;6.98;100.00
71107;BME280;58763;47.982;11.516;2023-11-19T04:03:28;93977.84;;;7.11;100.00
71107;BME280;58763;47.982;11.516;2023-11-19T04:05:53;93975.69;;;7.23;100.00
71107;BME280;58763;47.982;11.516;2023-11-19T04:08:18;93973.53;;;7.20;100.00
71107;BME280;58763;47.982;11.516;2023-11-19T04:10:44;93976.22;;;7.25;100.00
71107;BME280;58763;47.982;11.516;2023-11-19T04:13:10;93991.78;;;7.38;100.00
71107;BME280;58763;47.982;11.516;2023-11-19T04:15:36;93978.34;;;7.48;100.00
71107;BME280;58763;47.982;11.516;2023-11-19T04:18:01;93975.09;;;7.56;100.00
71107;BME280;58763;47.982;11.516;2023-11-19T04:20:27;93981.28;;;7.67;100.00
71107;BME280;58763;47.982;11.516;2023-11-19T04:22:52;93970.75;;;7.71;100.00
71107;BME280;58763;47.982;11.516;2023-11-19T04:25:19;93981.75;;;7.84;100.00
71107;BME280;58763;47.982;11.516;2023-11-19T04:27:44;93984.44;;;7.89;100.00
71107;BME280;58763;47.982;11.516;2023-11-19T04:30:10;93993.84;;;7.97;100.00
71107;BME280;58763;47.982;11.516;2023-11-19T04:32:36;93993.31;;;8.00;100.00
71107;BME280;58763;47.982;11.516;2023-11-19T04:35:02;93994.38;;;8.04;100.00
71107;BME280;58763;47.982;11.516;2023-11-19T04:37:28;93990.03;;;8.08;100.00
71107;BME280;58763;47.982;11.516;2023-11-19T04:39:54;94006.16;;;8.18;100.00
71107;BME280;58763;47.982;11.516;2023-11-19T04:42:22;93997.53;;;8.21;100.00
71107;BME280;58763;47.982;11.516;2023-11-19T04:44:47;94008.06;;;8.27;100.00
71107;BME280;58763;47.982;11.516;2023-11-19T04:47:12;93999.13;;;8.32;100.00
71107;BME280;58763;47.982;11.516;2023-11-19T04:49:42;93996.16;;;8.39;100.00
71107;BME280;58763;47.982;11.516;2023-11-19T04:52:08;94000.44;;;8.45;100.00
71107;BME280;58763;47.982;11.516;2023-11-19T04:54:33;93993.66;;;8.47;100.00
71107;BME280;58763;47.982;11.516;2023-11-19T04:56:59;93999.03;;;8.52;100.00
71107;BME280;58763;47.982;11.516;2023-11-19T04:59:24;94018.16;;;8.61;100.00
71107;BME280;58763;47.982;11.516;2023-11-19T05:01:49;94015.47;;;8.61;100.00
71107;BME280;58763;47.982;11.516;2023-11-19T05:04:16;94030.81;;;8.60;100.00
71107;BME280;58763;47.982;11.516;2023-11-19T05:06:41;94007.09;;;8.62;100.00
71107;BME280;58763;47.982;11.516;2023-11-19T05:09:07;94011.41;;;8.63;100.00
71107;BME280;58763;47.982;11.516;2023-11-19T05:11:33;94022.41;;;8.72;100.00
71107;BME280;58763;47.982;11.516;2023-11-19T05:13:59;94012.69;;;8.71;100.00
71107;BME280;58763;47.982;11.516;2023-11-19T05:16:25;94012.44;;;8.67;100.00
71107;BME280;58763;47.982;11.516;2023-11-19T05:18:50;94021.03;;;8.74;100.00
71107;BME280;58763;47.982;11.516;2023-11-19T05:21:16;94024.25;;;8.76;100.00
71107;BME280;58763;47.982;11.516;2023-11-19T05:23:42;94014.03;;;8.73;100.00
71107;BME280;58763;47.982;11.516;2023-11-19T05:26:08;94024.78;;;8.78;100.00
71107;BME280;58763;47.982;11.516;2023-11-19T05:28:37;94033.41;;;8.80;100.00
71107;BME280;58763;47.982;11.516;2023-11-19T05:31:03;94032.03;;;8.83;100.00
71107;BME280;58763;47.982;11.516;2023-11-19T05:33:28;94045.25;;;8.84;100.00
71107;BME280;58763;47.982;11.516;2023-11-19T05:35:54;94029.09;;;8.84;100.00
71107;BME280;58763;47.982;11.516;2023-11-19T05:38:19;94025.56;;;8.84;100.00
71107;BME280;58763;47.982;11.516;2023-11-19T05:40:46;94042.59;;;8.79;100.00
71107;BME280;58763;47.982;11.516;2023-11-19T05:43:13;94042.81;;;8.83;100.00
71107;BME280;58763;47.982;11.516;2023-11-19T05:45:40;94029.09;;;8.84;100.00
71107;BME280;58763;47.982;11.516;2023-11-19T05:48:05;94035.00;;;8.86;100.00
71107;BME280;58763;47.982;11.516;2023-11-19T05:50:30;94044.66;;;8.92;100.00
71107;BME280;58763;47.982;11.516;2023-11-19T05:52:56;94044.13;;;8.90;100.00
71107;BME280;58763;47.982;11.516;2023-11-19T05:55:21;94040.91;;;8.88;100.00
71107;BME280;58763;47.982;11.516;2023-11-19T05:57:48;94040.91;;;8.88;100.00
71107;BME280;58763;47.982;11.516;2023-11-19T06:00:14;94044.13;;;8.90;100.00
71107;BME280;58763;47.982;11.516;2023-11-19T06:02:40;94051.38;;;8.95;100.00
71107;BME280;58763;47.982;11.516;2023-11-19T06:05:06;94040.34;;;8.91;100.00
71107;BME280;58763;47.982;11.516;2023-11-19T06:07:32;94061.13;;;8.91;100.00
71107;BME280;58763;47.982;11.516;2023-11-19T06:09:58;94057.63;;;8.85;100.00
71107;BME280;58763;47.982;11.516;2023-11-19T06:12:24;94049.53;;;8.90;100.00
71107;BME280;58763;47.982;11.516;2023-11-19T06:14:49;94036.34;;;8.89;100.00
71107;BME280;58763;47.982;11.516;2023-11-19T06:17:14;94053.81;;;8.91;100.00
71107;BME280;58763;47.982;11.516;2023-11-19T06:19:40;94066.22;;;8.92;100.00
71107;BME280;58763;47.982;11.516;2023-11-19T06:22:05;94053.81;;;8.91;100.00
71107;BME280;58763;47.982;11.516;2023-11-19T06:24:30;94057.59;;;8.95;100.00
71107;BME280;58763;47.982;11.516;2023-11-19T06:26:56;94042.47;;;8.99;100.00
71107;BME280;58763;47.982;11.516;2023-11-19T06:29:21;94051.09;;;8.96;100.00
71107;BME280;58763;47.982;11.516;2023-11-19T06:31:47;94051.63;;;8.98;100.00
71107;BME280;58763;47.982;11.516;2023-11-19T06:34:15;94050.00;;;9.02;100.00
71107;BME280;58763;47.982;11.516;2023-11-19T06:36:41;94056.47;;;9.01;100.00
71107;BME280;58763;47.982;11.516;2023-11-19T06:39:06;94048.38;;;9.01;100.00
71107;BME280;58763;47.982;11.516;2023-11-19T06:41:32;94045.13;;;9.04;100.00
71107;BME280;58763;47.982;11.516;2023-11-19T06:43:57;94041.34;;;9.05;100.00
71107;BME280;58763;47.982;11.516;2023-11-19T06:46:23;94040.97;;;9.22;100.00
71107;BME280;58763;47.982;11.516;2023-11-19T06:48:49;94048.03;;;9.13;100.00
71107;BME280;58763;47.982;11.516;2023-11-19T06:51:14;94054.78;;;9.16;100.00
71107;BME280;58763;47.982;11.516;2023-11-19T06:53:40;94069.59;;;9.18;100.00
71107;BME280;58763;47.982;11.516;2023-11-19T06:56:17;94069.03;;;9.21;100.00
71107;BME280;58763;47.982;11.516;2023-11-19T06:58:42;94081.94;;;9.24;100.00
71107;BME280;58763;47.982;11.516;2023-11-19T07:01:08;94076.31;;;9.21;100.00
71107;BME280;58763;47.982;11.516;2023-11-19T07:03:34;94066.38;;;9.16;100.00
71107;BME280;58763;47.982;11.516;2023-11-19T07:06:00;94076.31;;;9.21;100.00
71107;BME280;58763;47.982;11.516;2023-11-19T07:08:25;94067.94;;;9.22;100.00
71107;BME280;58763;47.982;11.516;2023-11-19T07:10:52;94077.94;;;9.22;100.00
71107;BME280;58763;47.982;11.516;2023-11-19T07:13:17;94085.97;;;9.27;100.00
71107;BME280;58763;47.982;11.516;2023-11-19T07:15:44;94075.75;;;9.29;100.00
71107;BME280;58763;47.982;11.516;2023-11-19T07:18:10;94085.19;;;9.26;100.00
71107;BME280;58763;47.982;11.516;2023-11-19T07:20:37;94084.38;;;9.31;100.00
71107;BME280;58763;47.982;11.516;2023-11-19T07:23:03;94091.34;;;9.32;100.00
71107;BME280;58763;47.982;11.516;2023-11-19T07:25:29;94097.81;;;9.36;100.00
71107;BME280;58763;47.982;11.516;2023-11-19T07:27:54;94095.91;;;9.36;100.00
71107;BME280;58763;47.982;11.516;2023-11-19T07:30:19;94110.75;;;9.39;100.00
71107;BME280;58763;47.982;11.516;2023-11-19T07:32:47;94107.72;;;9.45;100.00
71107;BME280;58763;47.982;11.516;2023-11-19T07:35:15;94103.47;;;9.39;100.00
71107;BME280;58763;47.982;11.516;2023-11-19T07:37:41;94112.63;;;9.38;100.00
71107;BME280;58763;47.982;11.516;2023-11-19T07:40:08;94099.41;;;9.37;100.00
71107;BME280;58763;47.982;11.516;2023-11-19T07:42:33;94106.38;;;9.43;100.00
71107;BME280;58763;47.982;11.516;2023-11-19T07:44:59;94112.00;;;9.51;100.00
71107;BME280;58763;47.982;11.516;2023-11-19T07:47:24;94095.53;;;9.53;100.00
71107;BME280;58763;47.982;11.516;2023-11-19T07:49:50;94108.50;;;9.51;100.00
71107;BME280;58763;47.982;11.516;2023-11-19T07:52:16;94110.88;;;9.57;100.00
71107;BME280;58763;47.982;11.516;2023-11-19T07:54:47;94099.81;;;9.59;100.00
71107;BME280;58763;47.982;11.516;2023-11-19T07:57:17;94113.59;;;9.57;100.00
71107;BME280;58763;47.982;11.516;2023-11-19T07:59:42;94106.84;;;9.55;100.00
71107;BME280;58763;47.982;11.516;2023-11-19T08:02:08;94124.41;;;9.52;100.00
71107;BME280;58763;47.982;11.516;2023-11-19T08:04:34;94120.88;;;9.57;100.00
71107;BME280;58763;47.982;11.516;2023-11-19T08:06:59;94122.53;;;9.53;100.00
71107;BME280;58763;47.982;11.516;2023-11-19T08:09:25;94130.66;;;9.48;100.00
71107;BME280;58763;47.982;11.516;2023-11-19T08:11:50;94121.72;;;9.52;100.00
71107;BME280;58763;47.982;11.516;2023-11-19T08:14:16;94115.47;;;9.57;100.00
71107;BME280;58763;47.982;11.516;2023-11-19T08:16:41;94127.66;;;9.54;100.00
71107;BME280;58763;47.982;11.516;2023-11-19T08:19:07;94104.44;;;9.53;100.00
71107;BME280;58763;47.982;11.516;2023-11-19T08:21:33;94127.38;;;9.56;100.00
71107;BME280;58763;47.982;11.516;2023-11-19T08:23:59;94117.91;;;9.58;100.00
71107;BME280;58763;47.982;11.516;2023-11-19T08:26:24;94105.16;;;9.64;100.00
71107;BME280;58763;47.982;11.516;2023-11-19T08:28:50;94125.19;;;9.58;100.00
71107;BME280;58763;47.982;11.516;2023-11-19T08:31:17;94111.13;;;9.66;100.00
71107;BME280;58763;47.982;11.516;2023-11-19T08:33:42;94120.78;;;9.72;100.00
71107;BME280;58763;47.982;11.516;2023-11-19T08:36:08;94122.69;;;9.66;100.00
71107;BME280;58763;47.982;11.516;2023-11-19T08:38:33;94123.50;;;9.67;100.00
71107;BME280;58763;47.982;11.516;2023-11-19T08:40:59;94131.59;;;9.67;100.00
71107;BME280;58763;47.982;11.516;2023-11-19T08:43:29;94132.13;;;9.69;100.00
71107;BME280;58763;47.982;11.516;2023-11-19T08:45:56;94127.22;;;9.76;100.00
71107;BME280;58763;47.982;11.516;2023-11-19T08:48:21;94122.88;;;9.80;100.00
71107;BME280;58763;47.982;11.516;2023-11-19T08:50:47;94130.44;;;9.78;100.00
71107;BME280;58763;47.982;11.516;2023-11-19T08:53:12;94123.63;;;9.86;100.00
71107;BME280;58763;47.982;11.516;2023-11-19T08:55:37;94130.69;;;9.82;100.00
71107;BME280;58763;47.982;11.516;2023-11-19T08:58:03;94133.88;;;9.89;100.00
71107;BME280;58763;47.982;11.516;2023-11-19T09:00:28;94146.25;;;9.95;100.00
71107;BME280;58763;47.982;11.516;2023-11-19T09:02:55;94114.91;;;9.99;100.00
71107;BME280;58763;47.982;11.516;2023-11-19T09:05:21;94121.09;;;9.99;100.00
71107;BME280;58763;47.982;11.516;2023-11-19T09:07:46;94115.69;;;9.99;100.00
71107;BME280;58763;47.982;11.516;2023-11-19T09:10:11;94124.31;;;10.01;100.00
71107;BME280;58763;47.982;11.516;2023-11-19T09:12:37;94113.03;;;9.94;100.00
71107;BME280;58763;47.982;11.516;2023-11-19T09:15:03;94117.88;;;9.97;100.00
71107;BME280;58763;47.982;11.516;2023-11-19T09:17:28;94124.91;;;9.98;100.00
71107;BME280;58763;47.982;11.516;2023-11-19T09:19:54;94123.78;;;9.99;100.00
71107;BME280;58763;47.982;11.516;2023-11-19T09:22:19;94126.22;;;10.01;100.00
71107;BME280;58763;47.982;11.516;2023-11-19T09:24:45;94118.91;;;10.01;100.00
71107;BME280;58763;47.982;11.516;2023-11-19T09:27:10;94136.44;;;10.04;100.00
71107;BME280;58763;47.982;11.516;2023-11-19T09:29:36;94140.25;;;10.03;100.00
71107;BME280;58763;47.982;11.516;2023-11-19T09:32:01;94143.22;;;10.01;100.00
71107;BME280;58763;47.982;11.516;2023-11-19T09:34:27;94142.69;;;9.99;100.00
71107;BME280;58763;47.982;11.516;2023-11-19T09:36:53;94134.56;;;10.04;100.00
71107;BME280;58763;47.982;11.516;2023-11-19T09:39:18;94142.63;;;10.09;100.00
71107;BME280;58763;47.982;11.516;2023-11-19T09:41:44;94150.44;;;10.16;100.00
71107;BME280;58763;47.982;11.516;2023-11-19T09:44:12;94143.19;;;10.11;100.00
71107;BME280;58763;47.982;11.516;2023-11-19T09:46:41;94143.19;;;10.11;100.00
71107;BME280;58763;47.982;11.516;2023-11-19T09:49:08;94137.22;;;10.09;100.00
71107;BME280;58763;47.982;11.516;2023-11-19T09:51:35;94127.22;;;10.10;100.00
71107;BME280;58763;47.982;11.516;2023-11-19T09:54:01;94126.41;;;10.09;100.00
71107;BME280;58763;47.982;11.516;2023-11-19T09:56:29;94146.13;;;10.15;100.00
71107;BME280;58763;47.982;11.516;2023-11-19T09:58:55;94126.88;;;10.21;100.00
71107;BME280;58763;47.982;11.516;2023-11-19T10:01:21;94125.78;;;10.22;100.00
71107;BME280;58763;47.982;11.516;2023-11-19T10:03:48;94120.63;;;10.26;100.00
71107;BME280;58763;47.982;11.516;2023-11-19T10:06:15;94126.84;;;10.26;100.00
71107;BME280;58763;47.982;11.516;2023-11-19T10:08:42;94130.56;;;10.30;100.00
71107;BME280;58763;47.982;11.516;2023-11-19T10:11:08;94131.09;;;10.32;100.00
71107;BME280;58763;47.982;11.516;2023-11-19T10:13:35;94119.72;;;10.35;100.00
71107;BME280;58763;47.982;11.516;2023-11-19T10:16:07;94119.13;;;10.38;100.00
71107;BME280;58763;47.982;11.516;2023-11-19T10:18:34;94112.56;;;10.50;100.00
71107;BME280;58763;47.982;11.516;2023-11-19T10:21:04;94110.38;;;10.52;100.00
71107;BME280;58763;47.982;11.516;2023-11-19T10:23:31;94108.94;;;10.59;100.00
71107;BME280;58763;47.982;11.516;2023-11-19T10:26:06;94112.72;;;10.58;100.00
71107;BME280;58763;47.982;11.516;2023-11-19T10:28:41;94105.06;;;10.65;100.00
71107;BME280;58763;47.982;11.516;2023-11-19T10:31:17;94111.25;;;10.71;100.00
71107;BME280;58763;47.982;11.516;2023-11-19T10:33:44;94100.53;;;10.84;100.00
71107;BME280;58763;47.982;11.516;2023-11-19T10:36:11;94104.63;;;10.82;100.00
71107;BME280;58763;47.982;11.516;2023-11-19T10:38:40;94107.81;;;10.84;100.00
71107;BME280;58763;47.982;11.516;2023-11-19T10:41:26;94091.31;;;10.85;100.00
71107;BME280;58763;47.982;11.516;2023-11-19T10:43:52;94091.94;;;10.77;100.00
71107;BME280;58763;47.982;11.516;2023-11-19T10:46:17;94087.56;;;10.81;100.00
71107;BME280;58763;47.982;11.516;2023-11-19T10:48:46;94077.22;;;10.88;100.00
71107;BME280;58763;47.982;11.516;2023-11-19T10:51:13;94068.28;;;10.88;100.00
71107;BME280;58763;47.982;11.516;2023-11-19T10:53:48;94078.00;;;10.89;100.00
71107;BME280;58763;47.982;11.516;2023-11-19T10:56:16;94075.19;;;10.99;100.00
71107;BME280;58763;47.982;11.516;2023-11-19T10:58:45;94070.34;;;10.96;100.00
71107;BME280;58763;47.982;11.516;2023-11-19T11:01:19;94077.00;;;10.85;100.00
71107;BME280;58763;47.982;11.516;2023-11-19T11:03:47;94062.09;;;10.87;100.00
71107;BME280;58763;47.982;11.516;2023-11-19T11:06:16;94057.56;;;11.01;100.00
71107;BME280;58763;47.982;11.516;2023-11-19T11:08:44;94050.84;;;10.99;100.00
71107;BME280;58763;47.982;11.516;2023-11-19T11:11:13;94068.59;;;11.05;100.00
71107;BME280;58763;47.982;11.516;2023-11-19T11:13:42;94062.81;;;11.11;100.00
71107;BME280;58763;47.982;11.516;2023-11-19T11:16:08;94065.97;;;11.19;100.00
71107;BME280;58763;47.982;11.516;2023-11-19T11:18:33;94051.00;;;11.26;100.00
71107;BME280;58763;47.982;11.516;2023-11-19T11:21:12;94050.94;;;11.31;98.98
71107;BME280;58763;47.982;11.516;2023-11-19T11:26:55;94048.44;;;11.35;98.75
71107;BME280;58763;47.982;11.516;2023-11-19T11:34:52;94053.47;;;11.41;97.68
71107;BME280;58763;47.982;11.516;2023-11-19T11:37:26;94052.25;;;11.52;99.04
71107;BME280;58763;47.982;11.516;2023-11-19T11:39:57;94058.09;;;11.59;98.23
71107;BME280;58763;47.982;11.516;2023-11-19T11:50:16;94017.03;;;11.71;94.17
71107;BME280;58763;47.982;11.516;2023-11-19T11:55:34;94024.47;;;11.60;94.45
71107;BME280;58763;47.982;11.516;2023-11-19T11:58:00;94032.81;;;11.64;95.53
71107;BME280;58763;47.982;11.516;2023-11-19T12:02:55;94015.94;;;11.86;94.37
71107;BME280;58763;47.982;11.516;2023-11-19T12:05:21;94026.53;;;12.01;93.74
71107;BME280;58763;47.982;11.516;2023-11-19T12:07:59;94019.31;;;11.96;92.98
71107;BME280;58763;47.982;11.516;2023-11-19T12:10:29;94015.53;;;12.11;91.49
71107;BME280;58763;47.982;11.516;2023-11-19T12:13:00;94019.81;;;12.12;91.37
71107;BME280;58763;47.982;11.516;2023-11-19T12:15:27;94018.91;;;12.03;90.30
71107;BME280;58763;47.982;11.516;2023-11-19T12:17:54;94035.06;;;11.94;91.38
71107;BME280;58763;47.982;11.516;2023-11-19T12:20:24;94027.00;;;11.89;91.04
71107;BME280;58763;47.982;11.516;2023-11-19T12:22:51;94033.91;;;11.82;90.75
71107;BME280;58763;47.982;11.516;2023-11-19T12:25:18;94032.81;;;11.83;90.77
71107;BME280;58763;47.982;11.516;2023-11-19T12:27:51;94039.50;;;11.71;89.56
71107;BME280;58763;47.982;11.516;2023-11-19T12:30:26;94027.56;;;11.54;92.08
71107;BME280;58763;47.982;11.516;2023-11-19T12:32:53;94019.06;;;11.60;91.15
71107;BME280;58763;47.982;11.516;2023-11-19T12:35:19;94018.03;;;11.56;91.66
71107;BME280;58763;47.982;11.516;2023-11-19T12:37:51;94020.81;;;11.51;92.21
71107;BME280;58763;47.982;11.516;2023-11-19T12:40:20;94018.28;;;11.41;92.80
71107;BME280;58763;47.982;11.516;2023-11-19T12:42:47;94021.72;;;11.47;92.95
71107;BME280;58763;47.982;11.516;2023-11-19T12:45:13;94010.72;;;11.57;91.79
71107;BME280;58763;47.982;11.516;2023-11-19T12:47:39;94029.25;;;11.50;92.22
71107;BME280;58763;47.982;11.516;2023-11-19T12:50:06;94020.41;;;11.44;92.60
71107;BME280;58763;47.982;11.516;2023-11-19T12:52:33;94018.06;;;11.38;93.91
71107;BME280;58763;47.982;11.516;2023-11-19T12:54:59;94008.19;;;11.47;93.31
71107;BME280;58763;47.982;11.516;2023-11-19T12:57:41;93998.88;;;11.53;92.74
71107;BME280;58763;47.982;11.516;2023-11-19T13:00:07;94001.28;;;11.54;93.18
71107;BME280;58763;47.982;11.516;2023-11-19T13:02:46;93996.38;;;11.56;92.83
71107;BME280;58763;47.982;11.516;2023-11-19T13:07:48;93983.03;;;11.60;92.61
71107;BME280;58763;47.982;11.516;2023-11-19T13:10:14;93967.53;;;11.65;92.60
71107;BME280;58763;47.982;11.516;2023-11-19T13:12:40;93976.09;;;11.72;91.91